KMEV/MEV METAR and TAF weather

Enter ICAO airport designator
Station Type Date Time Source
KMEV METAR 2020/01/24 09:15 UTC NOAA

KMEV 240915Z AUTO 05006KT 10SM BKN049 OVC060 05/04 A3012 RMK AO2


Station Type Date Time Source
KMEV Decoded METAR 2020/01/24 09:15 UTC NOAA

Station name not available
Jan 24, 2020 - 04:15 AM EST / 2020.01.24 0915 UTC
Wind: from the NE (050 degrees) at 7 MPH (6 KT):0
Visibility: 10 mile(s):0
Sky conditions: overcast
Temperature: 41 F (5 C)
Dew Point: 39 F (4 C)
Relative Humidity: 93%
Pressure (altimeter): 30.12 in. Hg (1019 hPa)
ob: KMEV 240915Z AUTO 05006KT 10SM BKN049 OVC060 05/04 A3012 RMK AO2
cycle: 9

Station Type Date Time Source
KMEV TAF 2020/01/24 06:33 UTC NOAA

TAF KMEV 240530Z 2406/2506 VRB04KT P6SM VCSH SCT030 OVC070
FM241100 VRB04KT P6SM FEW040 BKN200

Example: see airport list